Share

Atka, AK

8:49 PM HADT on April 23, 2014 (GMT -0900)
Atka (PAAK) Elev 56 ft | 52.22 °N, 174.21 °W | Change Station

Current weather conditions updated 13 minutes ago

Partly Cloudy
Partly Cloudy
39 °F
Feels Like 33 °F
N
9
Wind Variable Wind from SSW
Sunrise 7:21 AM
Sunset 9:49 PM
Moon Waning Crescent

Tomorrow is forecast to be nearly the same temperature as today. Rain and snow.

Pressure 29.42 in
Visibility 10.0 miles
Clouds Few 4500 ft
Windchill 33 °F
Dew Point 30 °F
Humidity 70%
Rainfall 0.00 in
Snow Depth Not available.
UV 0 out of 16
Pollen Not available.
Air Quality Not available.
Flu Activity Sporadic
METAR PAAK 240536Z 20008KT 10SM FEW045 04/M01 A2942 RMK AO1

More Conditions Fewer Conditions

Pressure 29.42 in
Visibility 10.0 miles
Clouds Few 4500 ft
Windchill 33 °F
Dew Point 30 °F
Humidity 70%
Rainfall 0.00 in
Snow Depth Not available.
UV 0 out of 16
Pollen Not available.
Air Quality Not available.
Flu Activity Sporadic
METAR PAAK 240536Z 20008KT 10SM FEW045 04/M01 A2942 RMK AO1

More Conditions Fewer Conditions

10-Day Weather Forecast

Almanac

Astronomy

Apr. 23, 2014 Rise Set
Actual Time 7:21 AM HADT 9:49 PM HADT
Civil Twilight 6:44 AM HADT 10:27 PM HADT
Nautical Twilight 5:56 AM HADT 11:15 PM HADT
Astronomical Twilight 5:00 AM HADT 12:12 AM HADT
Moon 4:47 AM HADT (4/23) 3:31 PM HADT (4/23)
Length of Visible Light 15h 42m
Length of Day
14h 27m
Tomorrow will be 3m 47s longer.
Waning Crescent, 29% of the Moon is Illuminated
Apr 24
Waning Crescent
Apr 29
New
May 6
First Quarter
May 14
Full
May 21
Last Quarter

Yesterday's Extremes

State Highs State Lows

Community

  • Stacked
    Stacked
  • clouds approaching Red Sox Nation
    clouds approaching Red Sox Nation
  • Balance
    Balance
  • Nestled In
    Nestled In
  • Stunning Sunrise
    Stunning Sunrise

WunderPhotos

Upload Photos

1,704,572 photos uploaded!

WunderBlogs® & News

Nearby

Snow Depth

Station Depth Elevation
Rocky Point 1 in 500 ft
Port Graham 2 in 300 ft
Mcneil Canyon 3 in 1320 ft
MF Bradley River 17 in 2300 ft
Nuka Glacier 26 in 1250 ft

Coastal Water Temperatures

Place Temperature
No Stations Reporting

Earthquake Activity

City Distance Mag. Time & Date
No recent earthquake activity has been reported nearby.
Minimum magnitude displayed is 2.5.

Nearby Weather Stations

There are no personal weather stations in this area.

What do you think?

We're not finished. Please let us know what you like, what you don't like, and what you are still missing.